sensor_id;sensor_type;location;lat;lon;timestamp;temperature;humidity
27858;DHT22;16852;51.446;6.528;2023-12-29T00:01:44;11.50;99.90
27858;DHT22;16852;51.446;6.528;2023-12-29T00:03:45;11.60;99.90
27858;DHT22;16852;51.446;6.528;2023-12-29T00:05:45;11.60;99.90
27858;DHT22;16852;51.446;6.528;2023-12-29T00:07:46;11.60;99.90
27858;DHT22;16852;51.446;6.528;2023-12-29T00:09:46;11.60;99.90
27858;DHT22;16852;51.446;6.528;2023-12-29T00:11:49;11.60;99.90
27858;DHT22;16852;51.446;6.528;2023-12-29T00:13:50;11.60;99.90
27858;DHT22;16852;51.446;6.528;2023-12-29T00:15:54;11.60;99.90
27858;DHT22;16852;51.446;6.528;2023-12-29T00:17:55;11.60;99.90
27858;DHT22;16852;51.446;6.528;2023-12-29T00:19:56;11.60;99.90
27858;DHT22;16852;51.446;6.528;2023-12-29T00:21:56;11.60;99.90
27858;DHT22;16852;51.446;6.528;2023-12-29T00:23:57;11.60;99.90
27858;DHT22;16852;51.446;6.528;2023-12-29T00:25:58;11.60;99.90
27858;DHT22;16852;51.446;6.528;2023-12-29T00:27:58;11.60;99.90
27858;DHT22;16852;51.446;6.528;2023-12-29T00:29:59;11.60;99.90
27858;DHT22;16852;51.446;6.528;2023-12-29T00:31:59;11.60;99.90
27858;DHT22;16852;51.446;6.528;2023-12-29T00:34:03;11.60;99.90
27858;DHT22;16852;51.446;6.528;2023-12-29T00:36:04;11.60;99.90
27858;DHT22;16852;51.446;6.528;2023-12-29T00:38:05;11.60;99.90
27858;DHT22;16852;51.446;6.528;2023-12-29T00:40:07;11.60;99.90
27858;DHT22;16852;51.446;6.528;2023-12-29T00:42:07;11.60;99.90
27858;DHT22;16852;51.446;6.528;2023-12-29T00:44:08;11.60;99.90
27858;DHT22;16852;51.446;6.528;2023-12-29T00:46:08;11.60;99.90
27858;DHT22;16852;51.446;6.528;2023-12-29T00:48:09;11.60;99.90
27858;DHT22;16852;51.446;6.528;2023-12-29T00:50:10;11.60;99.90
27858;DHT22;16852;51.446;6.528;2023-12-29T00:52:10;11.60;99.90
27858;DHT22;16852;51.446;6.528;2023-12-29T00:54:11;11.60;99.90
27858;DHT22;16852;51.446;6.528;2023-12-29T00:56:12;11.60;99.90
27858;DHT22;16852;51.446;6.528;2023-12-29T00:58:12;11.60;99.90
27858;DHT22;16852;51.446;6.528;2023-12-29T01:00:13;11.60;99.90
27858;DHT22;16852;51.446;6.528;2023-12-29T01:02:14;11.60;99.90
27858;DHT22;16852;51.446;6.528;2023-12-29T01:04:14;11.60;99.90
27858;DHT22;16852;51.446;6.528;2023-12-29T01:06:15;11.60;99.90
27858;DHT22;16852;51.446;6.528;2023-12-29T01:08:15;11.60;99.90
27858;DHT22;16852;51.446;6.528;2023-12-29T01:10:16;11.60;99.90
27858;DHT22;16852;51.446;6.528;2023-12-29T01:12:17;11.60;99.90
27858;DHT22;16852;51.446;6.528;2023-12-29T01:14:17;11.60;99.90
27858;DHT22;16852;51.446;6.528;2023-12-29T01:16:18;11.50;99.90
27858;DHT22;16852;51.446;6.528;2023-12-29T01:18:18;11.50;99.90
27858;DHT22;16852;51.446;6.528;2023-12-29T01:20:19;11.60;99.90
27858;DHT22;16852;51.446;6.528;2023-12-29T01:22:20;11.50;99.90
27858;DHT22;16852;51.446;6.528;2023-12-29T01:24:20;11.50;99.90
27858;DHT22;16852;51.446;6.528;2023-12-29T01:26:21;11.50;99.90
27858;DHT22;16852;51.446;6.528;2023-12-29T01:28:21;11.60;99.90
27858;DHT22;16852;51.446;6.528;2023-12-29T01:30:23;11.50;99.90
27858;DHT22;16852;51.446;6.528;2023-12-29T01:32:23;11.50;99.90
27858;DHT22;16852;51.446;6.528;2023-12-29T01:34:24;11.50;99.90
27858;DHT22;16852;51.446;6.528;2023-12-29T01:36:32;11.50;99.90
27858;DHT22;16852;51.446;6.528;2023-12-29T01:38:33;11.60;99.90
27858;DHT22;16852;51.446;6.528;2023-12-29T01:40:43;11.50;99.90
27858;DHT22;16852;51.446;6.528;2023-12-29T01:42:44;11.50;99.90
27858;DHT22;16852;51.446;6.528;2023-12-29T01:44:44;11.50;99.90
27858;DHT22;16852;51.446;6.528;2023-12-29T01:46:46;11.40;99.90
27858;DHT22;16852;51.446;6.528;2023-12-29T01:48:46;11.50;99.90
27858;DHT22;16852;51.446;6.528;2023-12-29T01:50:47;11.40;99.90
27858;DHT22;16852;51.446;6.528;2023-12-29T01:52:49;11.40;99.90
27858;DHT22;16852;51.446;6.528;2023-12-29T01:54:50;11.30;99.90
27858;DHT22;16852;51.446;6.528;2023-12-29T01:56:56;11.20;99.90
27858;DHT22;16852;51.446;6.528;2023-12-29T01:58:57;11.20;99.90
27858;DHT22;16852;51.446;6.528;2023-12-29T02:00:59;11.10;99.90
27858;DHT22;16852;51.446;6.528;2023-12-29T02:03:00;11.10;99.90
27858;DHT22;16852;51.446;6.528;2023-12-29T02:05:01;11.00;99.90
27858;DHT22;16852;51.446;6.528;2023-12-29T02:07:02;11.00;99.90
27858;DHT22;16852;51.446;6.528;2023-12-29T02:09:03;10.90;99.90
27858;DHT22;16852;51.446;6.528;2023-12-29T02:11:04;10.90;99.90
27858;DHT22;16852;51.446;6.528;2023-12-29T02:13:05;10.80;99.90
27858;DHT22;16852;51.446;6.528;2023-12-29T02:15:06;10.90;99.90
27858;DHT22;16852;51.446;6.528;2023-12-29T02:17:46;10.80;99.90
27858;DHT22;16852;51.446;6.528;2023-12-29T02:19:49;10.80;99.90
27858;DHT22;16852;51.446;6.528;2023-12-29T02:21:50;10.70;99.90
27858;DHT22;16852;51.446;6.528;2023-12-29T02:23:51;10.70;99.90
27858;DHT22;16852;51.446;6.528;2023-12-29T02:25:55;10.60;99.90
27858;DHT22;16852;51.446;6.528;2023-12-29T02:28:21;10.60;99.90
27858;DHT22;16852;51.446;6.528;2023-12-29T02:30:31;10.70;99.90
27858;DHT22;16852;51.446;6.528;2023-12-29T02:32:38;10.60;99.90
27858;DHT22;16852;51.446;6.528;2023-12-29T02:34:40;10.60;99.90
27858;DHT22;16852;51.446;6.528;2023-12-29T02:36:41;10.60;99.90
27858;DHT22;16852;51.446;6.528;2023-12-29T02:38:43;10.60;99.90
27858;DHT22;16852;51.446;6.528;2023-12-29T02:40:44;10.60;99.90
27858;DHT22;16852;51.446;6.528;2023-12-29T02:42:47;10.60;99.90
27858;DHT22;16852;51.446;6.528;2023-12-29T02:44:47;10.60;99.90
27858;DHT22;16852;51.446;6.528;2023-12-29T02:46:48;10.60;99.90
27858;DHT22;16852;51.446;6.528;2023-12-29T02:48:49;10.60;99.90
27858;DHT22;16852;51.446;6.528;2023-12-29T02:50:50;10.60;99.90
27858;DHT22;16852;51.446;6.528;2023-12-29T02:52:50;10.60;99.90
27858;DHT22;16852;51.446;6.528;2023-12-29T02:54:51;10.60;99.90
27858;DHT22;16852;51.446;6.528;2023-12-29T02:56:51;10.60;99.90
27858;DHT22;16852;51.446;6.528;2023-12-29T02:58:52;10.60;99.90
27858;DHT22;16852;51.446;6.528;2023-12-29T03:00:53;10.70;99.90
27858;DHT22;16852;51.446;6.528;2023-12-29T03:02:54;10.60;99.90
27858;DHT22;16852;51.446;6.528;2023-12-29T03:04:55;10.70;99.90
27858;DHT22;16852;51.446;6.528;2023-12-29T03:06:56;10.70;99.90
27858;DHT22;16852;51.446;6.528;2023-12-29T03:08:56;10.70;99.90
27858;DHT22;16852;51.446;6.528;2023-12-29T03:10:57;10.70;99.90
27858;DHT22;16852;51.446;6.528;2023-12-29T03:12:57;10.70;99.90
27858;DHT22;16852;51.446;6.528;2023-12-29T03:14:58;10.70;99.90
27858;DHT22;16852;51.446;6.528;2023-12-29T03:16:59;10.70;99.90
27858;DHT22;16852;51.446;6.528;2023-12-29T03:18:59;10.70;99.90
27858;DHT22;16852;51.446;6.528;2023-12-29T03:21:00;10.80;99.90
27858;DHT22;16852;51.446;6.528;2023-12-29T03:23:00;10.80;99.90
27858;DHT22;16852;51.446;6.528;2023-12-29T03:25:01;10.80;99.90
27858;DHT22;16852;51.446;6.528;2023-12-29T03:27:01;10.90;99.90
27858;DHT22;16852;51.446;6.528;2023-12-29T03:29:02;10.80;99.90
27858;DHT22;16852;51.446;6.528;2023-12-29T03:31:03;10.90;99.90
27858;DHT22;16852;51.446;6.528;2023-12-29T03:33:04;10.90;99.90
27858;DHT22;16852;51.446;6.528;2023-12-29T03:35:05;10.90;99.90
27858;DHT22;16852;51.446;6.528;2023-12-29T03:37:05;10.90;99.90
27858;DHT22;16852;51.446;6.528;2023-12-29T03:39:06;10.90;99.90
27858;DHT22;16852;51.446;6.528;2023-12-29T03:41:07;10.90;99.90
27858;DHT22;16852;51.446;6.528;2023-12-29T03:43:07;10.90;99.90
27858;DHT22;16852;51.446;6.528;2023-12-29T03:45:08;11.00;99.90
27858;DHT22;16852;51.446;6.528;2023-12-29T03:47:09;11.00;99.90
27858;DHT22;16852;51.446;6.528;2023-12-29T03:49:11;11.00;99.90
27858;DHT22;16852;51.446;6.528;2023-12-29T03:51:11;11.00;99.90
27858;DHT22;16852;51.446;6.528;2023-12-29T03:53:12;11.00;99.90
27858;DHT22;16852;51.446;6.528;2023-12-29T03:55:15;11.00;99.90
27858;DHT22;16852;51.446;6.528;2023-12-29T03:57:16;11.00;99.90
27858;DHT22;16852;51.446;6.528;2023-12-29T03:59:16;11.00;99.90
27858;DHT22;16852;51.446;6.528;2023-12-29T04:01:17;11.00;99.90
27858;DHT22;16852;51.446;6.528;2023-12-29T04:03:18;11.00;99.90
27858;DHT22;16852;51.446;6.528;2023-12-29T04:05:19;11.00;99.90
27858;DHT22;16852;51.446;6.528;2023-12-29T04:07:20;11.00;99.90
27858;DHT22;16852;51.446;6.528;2023-12-29T04:09:20;11.00;99.90
27858;DHT22;16852;51.446;6.528;2023-12-29T04:11:21;11.00;99.90
27858;DHT22;16852;51.446;6.528;2023-12-29T04:13:22;11.00;99.90
27858;DHT22;16852;51.446;6.528;2023-12-29T04:15:22;11.00;99.90
27858;DHT22;16852;51.446;6.528;2023-12-29T04:17:23;11.00;99.90
27858;DHT22;16852;51.446;6.528;2023-12-29T04:19:23;11.10;99.90
27858;DHT22;16852;51.446;6.528;2023-12-29T04:21:24;11.00;99.90
27858;DHT22;16852;51.446;6.528;2023-12-29T04:23:25;11.00;99.90
27858;DHT22;16852;51.446;6.528;2023-12-29T04:25:26;11.10;99.90
27858;DHT22;16852;51.446;6.528;2023-12-29T04:27:26;11.00;99.90
27858;DHT22;16852;51.446;6.528;2023-12-29T04:29:27;11.10;99.90
27858;DHT22;16852;51.446;6.528;2023-12-29T04:31:27;11.00;99.90
27858;DHT22;16852;51.446;6.528;2023-12-29T04:33:28;11.00;99.90
27858;DHT22;16852;51.446;6.528;2023-12-29T04:35:28;11.00;99.90
27858;DHT22;16852;51.446;6.528;2023-12-29T04:37:29;11.00;99.90
27858;DHT22;16852;51.446;6.528;2023-12-29T04:39:29;11.00;99.90
27858;DHT22;16852;51.446;6.528;2023-12-29T04:41:30;11.00;99.90
27858;DHT22;16852;51.446;6.528;2023-12-29T04:43:30;11.00;99.90
27858;DHT22;16852;51.446;6.528;2023-12-29T04:45:31;11.00;99.90
27858;DHT22;16852;51.446;6.528;2023-12-29T04:47:32;11.00;99.90
27858;DHT22;16852;51.446;6.528;2023-12-29T04:49:32;11.00;99.90
27858;DHT22;16852;51.446;6.528;2023-12-29T04:51:33;11.00;99.90
27858;DHT22;16852;51.446;6.528;2023-12-29T04:53:33;11.00;99.90
27858;DHT22;16852;51.446;6.528;2023-12-29T04:55:34;11.00;99.90
27858;DHT22;16852;51.446;6.528;2023-12-29T04:57:34;11.00;99.90
27858;DHT22;16852;51.446;6.528;2023-12-29T04:59:35;11.00;99.90
27858;DHT22;16852;51.446;6.528;2023-12-29T05:01:36;11.00;99.90
27858;DHT22;16852;51.446;6.528;2023-12-29T05:03:36;10.90;99.90
27858;DHT22;16852;51.446;6.528;2023-12-29T05:05:37;10.90;99.90
27858;DHT22;16852;51.446;6.528;2023-12-29T05:07:38;10.90;99.90
27858;DHT22;16852;51.446;6.528;2023-12-29T05:09:39;11.00;99.90
27858;DHT22;16852;51.446;6.528;2023-12-29T05:11:39;11.00;99.90
27858;DHT22;16852;51.446;6.528;2023-12-29T05:13:40;11.00;99.90
27858;DHT22;16852;51.446;6.528;2023-12-29T05:15:41;11.00;99.90
27858;DHT22;16852;51.446;6.528;2023-12-29T05:17:41;11.00;99.90
27858;DHT22;16852;51.446;6.528;2023-12-29T05:19:42;11.00;99.90
27858;DHT22;16852;51.446;6.528;2023-12-29T05:21:42;11.00;99.90
27858;DHT22;16852;51.446;6.528;2023-12-29T05:23:44;11.00;99.90
27858;DHT22;16852;51.446;6.528;2023-12-29T05:25:45;11.00;99.90
27858;DHT22;16852;51.446;6.528;2023-12-29T05:27:46;11.00;99.90
27858;DHT22;16852;51.446;6.528;2023-12-29T05:29:46;11.00;99.90
27858;DHT22;16852;51.446;6.528;2023-12-29T05:31:47;11.00;99.90
27858;DHT22;16852;51.446;6.528;2023-12-29T05:33:48;11.00;99.90
27858;DHT22;16852;51.446;6.528;2023-12-29T05:35:48;11.00;99.90
27858;DHT22;16852;51.446;6.528;2023-12-29T05:37:49;11.00;99.90
27858;DHT22;16852;51.446;6.528;2023-12-29T05:39:50;11.00;99.90
27858;DHT22;16852;51.446;6.528;2023-12-29T05:41:51;10.90;99.90
27858;DHT22;16852;51.446;6.528;2023-12-29T05:43:51;11.00;99.90
27858;DHT22;16852;51.446;6.528;2023-12-29T05:45:52;11.00;99.90
27858;DHT22;16852;51.446;6.528;2023-12-29T05:47:53;11.00;99.90
27858;DHT22;16852;51.446;6.528;2023-12-29T05:49:53;11.00;99.90
27858;DHT22;16852;51.446;6.528;2023-12-29T05:51:54;11.00;99.90
27858;DHT22;16852;51.446;6.528;2023-12-29T05:53:54;11.00;99.90
27858;DHT22;16852;51.446;6.528;2023-12-29T05:55:55;11.00;99.90
27858;DHT22;16852;51.446;6.528;2023-12-29T05:57:56;11.00;99.90
27858;DHT22;16852;51.446;6.528;2023-12-29T05:59:56;11.00;99.90
27858;DHT22;16852;51.446;6.528;2023-12-29T06:01:57;11.00;99.90
27858;DHT22;16852;51.446;6.528;2023-12-29T06:03:57;11.00;99.90
27858;DHT22;16852;51.446;6.528;2023-12-29T06:05:58;11.00;99.90
27858;DHT22;16852;51.446;6.528;2023-12-29T06:07:59;11.00;99.90
27858;DHT22;16852;51.446;6.528;2023-12-29T06:09:59;11.00;99.90
27858;DHT22;16852;51.446;6.528;2023-12-29T06:12:00;11.00;99.90
27858;DHT22;16852;51.446;6.528;2023-12-29T06:14:00;11.00;99.90
27858;DHT22;16852;51.446;6.528;2023-12-29T06:16:01;11.00;99.90
27858;DHT22;16852;51.446;6.528;2023-12-29T06:18:02;11.00;99.90
27858;DHT22;16852;51.446;6.528;2023-12-29T06:20:02;10.90;99.90
27858;DHT22;16852;51.446;6.528;2023-12-29T06:22:06;10.90;99.90
27858;DHT22;16852;51.446;6.528;2023-12-29T06:24:10;10.90;99.90
27858;DHT22;16852;51.446;6.528;2023-12-29T06:26:19;10.90;99.90
27858;DHT22;16852;51.446;6.528;2023-12-29T06:28:20;10.80;99.90
27858;DHT22;16852;51.446;6.528;2023-12-29T06:30:21;10.90;99.90
27858;DHT22;16852;51.446;6.528;2023-12-29T06:32:21;10.90;99.90
27858;DHT22;16852;51.446;6.528;2023-12-29T06:34:22;10.90;99.90
27858;DHT22;16852;51.446;6.528;2023-12-29T06:36:23;10.90;99.90
27858;DHT22;16852;51.446;6.528;2023-12-29T06:38:24;10.90;99.90
27858;DHT22;16852;51.446;6.528;2023-12-29T06:40:24;10.90;99.90
27858;DHT22;16852;51.446;6.528;2023-12-29T06:42:25;10.90;99.90
27858;DHT22;16852;51.446;6.528;2023-12-29T06:44:25;10.90;99.90
27858;DHT22;16852;51.446;6.528;2023-12-29T06:46:26;11.00;99.90
27858;DHT22;16852;51.446;6.528;2023-12-29T06:48:26;10.90;99.90
27858;DHT22;16852;51.446;6.528;2023-12-29T06:50:27;10.90;99.90
27858;DHT22;16852;51.446;6.528;2023-12-29T06:52:28;10.90;99.90
27858;DHT22;16852;51.446;6.528;2023-12-29T06:54:34;10.90;99.90
27858;DHT22;16852;51.446;6.528;2023-12-29T06:56:36;11.00;99.90
27858;DHT22;16852;51.446;6.528;2023-12-29T06:58:36;11.00;99.90
27858;DHT22;16852;51.446;6.528;2023-12-29T07:00:37;11.00;99.90
27858;DHT22;16852;51.446;6.528;2023-12-29T07:02:38;11.00;99.90
27858;DHT22;16852;51.446;6.528;2023-12-29T07:04:42;11.00;99.90
27858;DHT22;16852;51.446;6.528;2023-12-29T07:06:43;11.00;99.90
27858;DHT22;16852;51.446;6.528;2023-12-29T07:08:43;11.00;99.90
27858;DHT22;16852;51.446;6.528;2023-12-29T07:10:44;11.00;99.90
27858;DHT22;16852;51.446;6.528;2023-12-29T07:12:45;10.90;99.90
27858;DHT22;16852;51.446;6.528;2023-12-29T07:14:45;10.90;99.90
27858;DHT22;16852;51.446;6.528;2023-12-29T07:16:46;10.90;99.90
27858;DHT22;16852;51.446;6.528;2023-12-29T07:18:46;10.80;99.90
27858;DHT22;16852;51.446;6.528;2023-12-29T07:20:47;10.80;99.90
27858;DHT22;16852;51.446;6.528;2023-12-29T07:22:48;10.80;99.90
27858;DHT22;16852;51.446;6.528;2023-12-29T07:24:48;10.80;99.90
27858;DHT22;16852;51.446;6.528;2023-12-29T07:26:49;10.80;99.90
27858;DHT22;16852;51.446;6.528;2023-12-29T07:28:49;10.80;99.90
27858;DHT22;16852;51.446;6.528;2023-12-29T07:30:54;10.70;99.90
27858;DHT22;16852;51.446;6.528;2023-12-29T07:32:55;10.70;99.90
27858;DHT22;16852;51.446;6.528;2023-12-29T07:34:55;10.80;99.90
27858;DHT22;16852;51.446;6.528;2023-12-29T07:36:58;10.70;99.90
27858;DHT22;16852;51.446;6.528;2023-12-29T07:38:58;10.70;99.90
27858;DHT22;16852;51.446;6.528;2023-12-29T07:40:59;10.80;99.90
27858;DHT22;16852;51.446;6.528;2023-12-29T07:43:01;10.80;99.90
27858;DHT22;16852;51.446;6.528;2023-12-29T07:45:01;10.80;99.90
27858;DHT22;16852;51.446;6.528;2023-12-29T07:47:02;10.70;99.90
27858;DHT22;16852;51.446;6.528;2023-12-29T07:49:03;10.70;99.90
27858;DHT22;16852;51.446;6.528;2023-12-29T07:51:05;10.70;99.90
27858;DHT22;16852;51.446;6.528;2023-12-29T07:53:06;10.70;99.90
27858;DHT22;16852;51.446;6.528;2023-12-29T07:55:07;10.70;99.90
27858;DHT22;16852;51.446;6.528;2023-12-29T07:57:07;10.70;99.90
27858;DHT22;16852;51.446;6.528;2023-12-29T07:59:08;10.80;99.90
27858;DHT22;16852;51.446;6.528;2023-12-29T08:01:09;10.80;99.90
27858;DHT22;16852;51.446;6.528;2023-12-29T08:03:10;10.80;99.90
27858;DHT22;16852;51.446;6.528;2023-12-29T08:05:11;10.80;99.90
27858;DHT22;16852;51.446;6.528;2023-12-29T08:07:11;10.80;99.90
27858;DHT22;16852;51.446;6.528;2023-12-29T08:09:12;10.80;99.90
27858;DHT22;16852;51.446;6.528;2023-12-29T08:11:16;10.70;99.90
27858;DHT22;16852;51.446;6.528;2023-12-29T08:13:17;10.80;99.90
27858;DHT22;16852;51.446;6.528;2023-12-29T08:15:17;10.80;99.90
27858;DHT22;16852;51.446;6.528;2023-12-29T08:17:18;10.80;99.90
27858;DHT22;16852;51.446;6.528;2023-12-29T08:19:18;10.80;99.90
27858;DHT22;16852;51.446;6.528;2023-12-29T08:21:19;10.80;99.90
27858;DHT22;16852;51.446;6.528;2023-12-29T08:23:20;10.80;99.90
27858;DHT22;16852;51.446;6.528;2023-12-29T08:25:20;10.80;99.90
27858;DHT22;16852;51.446;6.528;2023-12-29T08:27:25;10.70;99.90
27858;DHT22;16852;51.446;6.528;2023-12-29T08:29:28;10.70;99.90
27858;DHT22;16852;51.446;6.528;2023-12-29T08:31:29;10.70;99.90
27858;DHT22;16852;51.446;6.528;2023-12-29T08:33:29;10.70;99.90
27858;DHT22;16852;51.446;6.528;2023-12-29T08:35:30;10.60;99.90
27858;DHT22;16852;51.446;6.528;2023-12-29T08:37:30;10.60;99.90
27858;DHT22;16852;51.446;6.528;2023-12-29T08:39:32;10.70;99.90
27858;DHT22;16852;51.446;6.528;2023-12-29T08:41:33;10.70;99.90
27858;DHT22;16852;51.446;6.528;2023-12-29T08:43:33;10.70;99.90
27858;DHT22;16852;51.446;6.528;2023-12-29T08:45:36;10.70;99.90
27858;DHT22;16852;51.446;6.528;2023-12-29T08:47:38;10.70;99.90
27858;DHT22;16852;51.446;6.528;2023-12-29T08:49:39;10.70;99.90
27858;DHT22;16852;51.446;6.528;2023-12-29T08:51:41;10.70;99.90
27858;DHT22;16852;51.446;6.528;2023-12-29T08:53:41;10.70;99.90
27858;DHT22;16852;51.446;6.528;2023-12-29T08:55:42;10.70;99.90
27858;DHT22;16852;51.446;6.528;2023-12-29T08:57:43;10.70;99.90
27858;DHT22;16852;51.446;6.528;2023-12-29T08:59:43;10.70;99.90
27858;DHT22;16852;51.446;6.528;2023-12-29T09:01:44;10.70;99.90
27858;DHT22;16852;51.446;6.528;2023-12-29T09:03:44;10.70;99.90
27858;DHT22;16852;51.446;6.528;2023-12-29T09:05:45;10.70;99.90
27858;DHT22;16852;51.446;6.528;2023-12-29T09:07:46;10.70;99.90
27858;DHT22;16852;51.446;6.528;2023-12-29T09:09:46;10.70;99.90
27858;DHT22;16852;51.446;6.528;2023-12-29T09:11:47;10.70;99.90
27858;DHT22;16852;51.446;6.528;2023-12-29T09:13:48;10.70;99.90
27858;DHT22;16852;51.446;6.528;2023-12-29T09:15:48;10.70;99.90
27858;DHT22;16852;51.446;6.528;2023-12-29T09:17:49;10.70;99.90
27858;DHT22;16852;51.446;6.528;2023-12-29T09:19:50;10.70;99.90
27858;DHT22;16852;51.446;6.528;2023-12-29T09:21:50;10.70;99.90
27858;DHT22;16852;51.446;6.528;2023-12-29T09:23:51;10.80;99.90
27858;DHT22;16852;51.446;6.528;2023-12-29T09:25:52;10.80;99.90
27858;DHT22;16852;51.446;6.528;2023-12-29T09:27:53;10.80;99.90
27858;DHT22;16852;51.446;6.528;2023-12-29T09:29:53;10.70;99.90
27858;DHT22;16852;51.446;6.528;2023-12-29T09:31:54;10.70;99.90
27858;DHT22;16852;51.446;6.528;2023-12-29T09:33:54;10.80;99.90
27858;DHT22;16852;51.446;6.528;2023-12-29T09:35:57;10.80;99.90
27858;DHT22;16852;51.446;6.528;2023-12-29T09:37:58;10.80;99.90
27858;DHT22;16852;51.446;6.528;2023-12-29T09:39:59;10.80;99.90
27858;DHT22;16852;51.446;6.528;2023-12-29T09:42:01;10.80;99.90
27858;DHT22;16852;51.446;6.528;2023-12-29T09:44:05;10.80;99.90
27858;DHT22;16852;51.446;6.528;2023-12-29T09:46:11;10.80;99.90
27858;DHT22;16852;51.446;6.528;2023-12-29T09:48:16;10.80;99.90
27858;DHT22;16852;51.446;6.528;2023-12-29T09:50:17;10.80;99.90
27858;DHT22;16852;51.446;6.528;2023-12-29T09:52:20;10.80;99.90
27858;DHT22;16852;51.446;6.528;2023-12-29T09:54:22;10.70;99.90
27858;DHT22;16852;51.446;6.528;2023-12-29T09:56:22;10.70;99.90
27858;DHT22;16852;51.446;6.528;2023-12-29T09:58:23;10.70;99.90
27858;DHT22;16852;51.446;6.528;2023-12-29T10:00:25;10.70;99.90
27858;DHT22;16852;51.446;6.528;2023-12-29T10:02:27;10.70;99.90
27858;DHT22;16852;51.446;6.528;2023-12-29T10:04:28;10.70;99.90
27858;DHT22;16852;51.446;6.528;2023-12-29T10:06:32;10.70;99.90
27858;DHT22;16852;51.446;6.528;2023-12-29T10:08:35;10.60;99.90
27858;DHT22;16852;51.446;6.528;2023-12-29T10:10:39;10.60;99.90
27858;DHT22;16852;51.446;6.528;2023-12-29T10:12:41;10.60;99.90
27858;DHT22;16852;51.446;6.528;2023-12-29T10:15:04;10.70;99.90
27858;DHT22;16852;51.446;6.528;2023-12-29T10:17:30;10.60;99.90
27858;DHT22;16852;51.446;6.528;2023-12-29T10:19:40;10.60;99.90
27858;DHT22;16852;51.446;6.528;2023-12-29T10:22:03;10.70;99.90
27858;DHT22;16852;51.446;6.528;2023-12-29T10:24:17;10.70;99.90
27858;DHT22;16852;51.446;6.528;2023-12-29T10:26:19;10.70;99.90
27858;DHT22;16852;51.446;6.528;2023-12-29T10:28:20;10.70;99.90
27858;DHT22;16852;51.446;6.528;2023-12-29T10:30:21;10.70;99.90
27858;DHT22;16852;51.446;6.528;2023-12-29T10:32:22;10.70;99.90
27858;DHT22;16852;51.446;6.528;2023-12-29T10:34:24;10.70;99.90
27858;DHT22;16852;51.446;6.528;2023-12-29T10:36:46;10.70;99.90
27858;DHT22;16852;51.446;6.528;2023-12-29T10:38:47;10.70;99.90
27858;DHT22;16852;51.446;6.528;2023-12-29T10:40:49;10.70;99.90
27858;DHT22;16852;51.446;6.528;2023-12-29T10:42:55;10.80;99.90
27858;DHT22;16852;51.446;6.528;2023-12-29T10:45:10;10.80;99.90
27858;DHT22;16852;51.446;6.528;2023-12-29T10:47:11;10.80;99.90
27858;DHT22;16852;51.446;6.528;2023-12-29T10:49:13;10.80;99.90
27858;DHT22;16852;51.446;6.528;2023-12-29T10:51:14;10.80;99.90
27858;DHT22;16852;51.446;6.528;2023-12-29T10:53:14;10.90;99.90
27858;DHT22;16852;51.446;6.528;2023-12-29T10:55:18;10.90;99.90
27858;DHT22;16852;51.446;6.528;2023-12-29T10:57:19;10.90;99.90
27858;DHT22;16852;51.446;6.528;2023-12-29T10:59:19;10.90;99.90
27858;DHT22;16852;51.446;6.528;2023-12-29T11:01:20;11.00;99.90
27858;DHT22;16852;51.446;6.528;2023-12-29T11:03:23;11.00;99.90
27858;DHT22;16852;51.446;6.528;2023-12-29T11:05:27;11.00;99.90
27858;DHT22;16852;51.446;6.528;2023-12-29T11:07:36;11.00;99.90
27858;DHT22;16852;51.446;6.528;2023-12-29T11:09:37;11.00;99.90
27858;DHT22;16852;51.446;6.528;2023-12-29T11:11:38;11.10;99.90
27858;DHT22;16852;51.446;6.528;2023-12-29T11:13:39;11.00;99.90
27858;DHT22;16852;51.446;6.528;2023-12-29T11:15:44;11.10;99.90
27858;DHT22;16852;51.446;6.528;2023-12-29T11:17:50;11.10;99.90
27858;DHT22;16852;51.446;6.528;2023-12-29T11:19:52;11.20;99.90
27858;DHT22;16852;51.446;6.528;2023-12-29T11:21:55;11.20;99.90
27858;DHT22;16852;51.446;6.528;2023-12-29T11:23:56;11.20;99.90
27858;DHT22;16852;51.446;6.528;2023-12-29T11:25:57;11.10;99.90
27858;DHT22;16852;51.446;6.528;2023-12-29T11:27:59;11.20;99.90
27858;DHT22;16852;51.446;6.528;2023-12-29T11:30:02;11.20;99.90
27858;DHT22;16852;51.446;6.528;2023-12-29T11:32:04;11.20;99.90
27858;DHT22;16852;51.446;6.528;2023-12-29T11:34:19;11.20;99.90
27858;DHT22;16852;51.446;6.528;2023-12-29T11:36:27;11.20;99.90
27858;DHT22;16852;51.446;6.528;2023-12-29T11:38:45;11.30;99.90
27858;DHT22;16852;51.446;6.528;2023-12-29T11:41:09;11.30;99.90
27858;DHT22;16852;51.446;6.528;2023-12-29T11:43:14;11.30;99.90
27858;DHT22;16852;51.446;6.528;2023-12-29T11:45:24;11.30;99.90
27858;DHT22;16852;51.446;6.528;2023-12-29T11:47:43;11.30;99.90
27858;DHT22;16852;51.446;6.528;2023-12-29T11:50:00;11.30;99.90
27858;DHT22;16852;51.446;6.528;2023-12-29T11:52:01;11.30;99.90
27858;DHT22;16852;51.446;6.528;2023-12-29T11:54:03;11.40;99.90
27858;DHT22;16852;51.446;6.528;2023-12-29T11:56:15;11.40;99.90
27858;DHT22;16852;51.446;6.528;2023-12-29T11:58:26;11.40;99.90
27858;DHT22;16852;51.446;6.528;2023-12-29T12:00:47;11.40;99.90
27858;DHT22;16852;51.446;6.528;2023-12-29T12:02:47;11.40;99.90
27858;DHT22;16852;51.446;6.528;2023-12-29T12:04:51;11.40;99.90
27858;DHT22;16852;51.446;6.528;2023-12-29T12:06:52;11.40;99.90
27858;DHT22;16852;51.446;6.528;2023-12-29T12:09:30;11.40;99.90
27858;DHT22;16852;51.446;6.528;2023-12-29T12:13:45;11.40;99.90
27858;DHT22;16852;51.446;6.528;2023-12-29T12:15:46;11.40;99.90
27858;DHT22;16852;51.446;6.528;2023-12-29T12:17:50;11.40;99.90
27858;DHT22;16852;51.446;6.528;2023-12-29T12:19:51;11.40;99.90
27858;DHT22;16852;51.446;6.528;2023-12-29T12:21:53;11.40;99.90
27858;DHT22;16852;51.446;6.528;2023-12-29T12:23:56;11.50;99.90
27858;DHT22;16852;51.446;6.528;2023-12-29T12:25:58;11.40;99.90
27858;DHT22;16852;51.446;6.528;2023-12-29T12:28:00;11.50;99.90
27858;DHT22;16852;51.446;6.528;2023-12-29T12:30:03;11.50;99.90
27858;DHT22;16852;51.446;6.528;2023-12-29T12:32:04;11.50;99.90
27858;DHT22;16852;51.446;6.528;2023-12-29T12:34:05;11.40;99.90
27858;DHT22;16852;51.446;6.528;2023-12-29T12:36:06;11.40;99.90
27858;DHT22;16852;51.446;6.528;2023-12-29T12:38:10;11.40;99.90
27858;DHT22;16852;51.446;6.528;2023-12-29T12:40:11;11.40;99.90
27858;DHT22;16852;51.446;6.528;2023-12-29T12:42:24;11.40;99.90
27858;DHT22;16852;51.446;6.528;2023-12-29T12:44:25;11.30;99.90
27858;DHT22;16852;51.446;6.528;2023-12-29T12:46:33;11.30;99.90
27858;DHT22;16852;51.446;6.528;2023-12-29T12:48:43;11.30;99.90
27858;DHT22;16852;51.446;6.528;2023-12-29T12:50:45;11.30;99.90
27858;DHT22;16852;51.446;6.528;2023-12-29T12:52:46;11.30;99.90
27858;DHT22;16852;51.446;6.528;2023-12-29T12:54:47;11.40;99.90